Time;durP1;ratioP1;P1;durP2;ratioP2;P2;SDS_P1;SDS_P2;PMS_P1;PMS_P2;Temp;Humidity;BMP_temperature;BMP_pressure;BME280_temperature;BME280_humidity;BME280_pressure;Samples;Min_cycle;Max_cycle;Signal;HPM_P1;HPM_P2
2022/03/02 00:01:34;;;;;;;12.82;10.05;;;10.50;78.50;;;;;;4813185;29;20065;-80
2022/03/02 00:04:01;;;;;;;13.07;10.27;;;10.50;78.40;;;;;;4828446;29;20034;-82
2022/03/02 00:06:26;;;;;;;13.60;10.48;;;10.50;78.50;;;;;;4798074;29;20030;-81
2022/03/02 00:08:52;;;;;;;14.07;10.60;;;10.50;78.40;;;;;;4783689;29;20042;-81
2022/03/02 00:11:18;;;;;;;12.93;10.30;;;10.50;78.40;;;;;;4813089;29;20076;-82
2022/03/02 00:13:44;;;;;;;12.73;10.50;;;10.50;78.50;;;;;;4813068;29;20083;-83
2022/03/02 00:16:11;;;;;;;13.35;10.50;;;10.40;78.40;;;;;;4828093;29;20034;-81
2022/03/02 00:18:36;;;;;;;13.25;11.00;;;10.40;78.40;;;;;;4844199;29;20024;-81
2022/03/02 00:21:02;;;;;;;15.18;11.82;;;10.40;78.40;;;;;;4827619;29;20454;-82
2022/03/02 00:23:29;;;;;;;13.93;10.73;;;10.40;78.40;;;;;;4827765;29;20082;-82
2022/03/02 00:25:55;;;;;;;14.27;11.27;;;10.40;78.40;;;;;;4797924;29;20040;-81
2022/03/02 00:28:21;;;;;;;13.88;11.25;;;10.40;78.40;;;;;;4812816;29;20057;-81
2022/03/02 00:30:48;;;;;;;12.98;9.88;;;10.40;78.50;;;;;;4828036;29;20103;-82
2022/03/02 00:33:14;;;;;;;13.13;10.13;;;10.40;78.50;;;;;;4810023;29;20062;-81
2022/03/02 00:35:40;;;;;;;13.27;11.35;;;10.40;78.50;;;;;;4809731;29;20034;-82
2022/03/02 00:38:09;;;;;;;14.18;11.55;;;10.30;78.40;;;;;;4809544;29;20042;-82
2022/03/02 00:40:35;;;;;;;13.82;10.95;;;10.30;78.40;;;;;;4810796;29;20471;-81
2022/03/02 00:43:01;;;;;;;13.77;11.00;;;10.30;78.40;;;;;;4810589;29;20063;-82
2022/03/02 00:45:26;;;;;;;14.93;11.05;;;10.30;78.40;;;;;;4794152;29;20129;-82
2022/03/02 00:47:52;;;;;;;13.73;11.27;;;10.30;78.50;;;;;;4779628;29;20034;-81
2022/03/02 00:50:19;;;;;;;13.25;10.55;;;10.30;78.40;;;;;;4825289;29;20404;-82
2022/03/02 00:52:45;;;;;;;15.25;11.60;;;10.20;78.40;;;;;;4810160;29;20030;-82
2022/03/02 00:55:11;;;;;;;13.93;10.80;;;10.30;78.40;;;;;;4824394;29;20544;-82
2022/03/02 00:57:37;;;;;;;14.50;11.65;;;10.30;78.40;;;;;;4824431;29;20117;-81
2022/03/02 01:00:04;;;;;;;14.00;11.43;;;10.20;78.40;;;;;;4809343;29;20054;-82
2022/03/02 01:02:30;;;;;;;13.52;10.60;;;10.20;78.40;;;;;;4824295;29;20584;-82
2022/03/02 01:04:56;;;;;;;14.25;11.13;;;10.20;78.40;;;;;;4794234;29;20125;-80
2022/03/02 01:07:22;;;;;;;14.20;10.48;;;10.20;78.40;;;;;;4809264;29;20065;-81
2022/03/02 01:09:48;;;;;;;15.05;11.65;;;10.20;78.40;;;;;;4824311;29;20100;-81
2022/03/02 01:12:13;;;;;;;13.70;11.63;;;10.20;78.40;;;;;;4809080;29;20091;-82
2022/03/02 01:14:39;;;;;;;14.95;10.95;;;10.20;78.40;;;;;;4809737;29;20051;-80
2022/03/02 01:17:05;;;;;;;14.60;11.90;;;10.10;78.40;;;;;;4824313;29;20034;-82
2022/03/02 01:19:31;;;;;;;14.35;11.20;;;10.20;78.40;;;;;;4808904;29;20038;-82
2022/03/02 01:21:57;;;;;;;13.55;10.95;;;10.10;78.40;;;;;;4809423;29;20026;-81
2022/03/02 01:24:23;;;;;;;13.98;11.27;;;10.10;78.40;;;;;;4808862;29;20477;-81
2022/03/02 01:26:48;;;;;;;14.85;11.45;;;10.10;78.40;;;;;;4808446;29;20438;-81
2022/03/02 01:29:14;;;;;;;14.90;11.20;;;10.10;78.40;;;;;;4808888;29;20045;-82
2022/03/02 01:31:40;;;;;;;13.95;10.85;;;10.10;78.40;;;;;;4808489;29;20042;-81
2022/03/02 01:34:06;;;;;;;14.23;11.48;;;10.10;78.40;;;;;;4808123;29;20069;-82
2022/03/02 01:36:32;;;;;;;13.80;11.35;;;10.10;78.40;;;;;;4809272;29;20043;-81
2022/03/02 01:38:57;;;;;;;14.27;11.32;;;10.10;78.40;;;;;;4823881;29;20034;-81
2022/03/02 01:41:25;;;;;;;14.50;11.57;;;10.10;78.40;;;;;;4823887;29;20042;-82
2022/03/02 01:43:54;;;;;;;13.93;11.38;;;10.10;78.50;;;;;;4808747;29;20034;-81
2022/03/02 01:46:21;;;;;;;15.75;12.05;;;10.00;78.40;;;;;;4823944;29;20037;-81
2022/03/02 01:48:48;;;;;;;15.50;12.15;;;10.00;78.40;;;;;;4793929;29;20034;-81
2022/03/02 01:51:15;;;;;;;13.65;10.90;;;10.00;78.40;;;;;;4808444;29;20053;-82
2022/03/02 01:53:41;;;;;;;14.35;11.52;;;10.00;78.40;;;;;;4808821;29;20042;-81
2022/03/02 01:56:07;;;;;;;15.48;11.77;;;10.00;78.50;;;;;;4808423;29;20417;-82
2022/03/02 01:58:33;;;;;;;15.73;11.35;;;10.00;78.40;;;;;;4808473;29;20389;-81
2022/03/02 02:01:00;;;;;;;14.57;12.25;;;10.00;78.40;;;;;;4808283;29;20038;-81
2022/03/02 02:03:27;;;;;;;14.32;12.15;;;10.00;78.40;;;;;;4823583;29;20038;-81
2022/03/02 02:05:54;;;;;;;16.35;11.50;;;10.00;78.40;;;;;;4808445;29;20368;-81
2022/03/02 02:08:20;;;;;;;14.45;11.70;;;10.00;78.80;;;;;;4808062;29;20395;-82
2022/03/02 02:10:46;;;;;;;15.55;11.95;;;9.90;78.40;;;;;;4808426;29;20048;-82
2022/03/02 02:13:12;;;;;;;14.70;11.35;;;9.90;78.40;;;;;;4824691;29;20403;-81
2022/03/02 02:15:38;;;;;;;15.57;12.25;;;9.90;78.40;;;;;;4823617;29;20030;-81
2022/03/02 02:18:04;;;;;;;17.80;12.38;;;9.90;78.40;;;;;;4807728;29;20377;-82
2022/03/02 02:20:37;;;;;;;15.10;11.90;;;9.90;78.40;;;;;;4823861;29;20042;-82
2022/03/02 02:23:03;;;;;;;16.02;12.00;;;9.90;78.40;;;;;;4823006;29;20494;-82
2022/03/02 02:25:29;;;;;;;14.60;11.73;;;9.90;78.40;;;;;;4823276;29;20041;-81
2022/03/02 02:27:55;;;;;;;15.25;11.82;;;9.80;78.40;;;;;;4808051;29;20035;-81
2022/03/02 02:30:21;;;;;;;15.10;11.85;;;9.80;78.40;;;;;;4807780;29;20118;-83
2022/03/02 02:32:48;;;;;;;14.85;11.13;;;9.80;78.40;;;;;;4811857;29;20104;-81
2022/03/02 02:35:14;;;;;;;14.93;11.80;;;9.80;78.40;;;;;;4811786;29;20475;-82
2022/03/02 02:37:40;;;;;;;15.40;11.70;;;9.80;78.50;;;;;;4811281;29;20120;-81
2022/03/02 02:40:20;;;;;;;14.82;11.23;;;9.80;78.50;;;;;;4810720;29;20069;-81
2022/03/02 02:42:47;;;;;;;14.57;11.45;;;9.80;78.60;;;;;;4810982;29;20046;-81
2022/03/02 02:45:17;;;;;;;15.40;12.13;;;9.80;78.50;;;;;;4843324;29;20038;-81
2022/03/02 02:47:44;;;;;;;15.63;12.20;;;9.70;78.50;;;;;;4814404;29;20030;-81
2022/03/02 02:50:23;;;;;;;15.32;12.40;;;9.70;78.50;;;;;;4814564;29;20105;-81
2022/03/02 02:52:51;;;;;;;15.02;11.13;;;9.70;78.50;;;;;;4846352;29;20069;-81
2022/03/02 02:55:17;;;;;;;15.75;12.13;;;9.70;78.40;;;;;;4814588;29;20419;-81
2022/03/02 02:57:44;;;;;;;15.52;11.30;;;9.70;78.50;;;;;;4845982;29;20034;-81
2022/03/02 03:00:13;;;;;;;15.07;11.82;;;9.70;78.50;;;;;;4828996;29;20095;-82
2022/03/02 03:02:40;;;;;;;14.10;11.27;;;9.70;78.50;;;;;;4814453;29;20130;-81
2022/03/02 03:05:14;;;;;;;14.60;11.68;;;9.70;78.50;;;;;;4829760;29;20118;-85
2022/03/02 03:07:40;;;;;;;13.90;11.57;;;9.60;78.50;;;;;;4815649;29;20418;-81
2022/03/02 03:10:08;;;;;;;15.73;13.00;;;9.60;78.40;;;;;;4830097;29;20452;-84
2022/03/02 03:12:34;;;;;;;14.77;11.63;;;9.60;78.50;;;;;;4815600;29;20034;-82
2022/03/02 03:15:02;;;;;;;16.00;11.90;;;9.60;78.50;;;;;;4814549;29;20437;-81
2022/03/02 03:17:28;;;;;;;15.60;12.38;;;9.60;78.50;;;;;;4829406;29;20030;-81
2022/03/02 03:19:54;;;;;;;14.80;12.07;;;9.60;78.50;;;;;;4813874;29;20030;-81
2022/03/02 03:22:19;;;;;;;14.23;11.35;;;9.60;78.50;;;;;;4829128;29;20075;-81
2022/03/02 03:24:45;;;;;;;15.07;12.35;;;9.60;78.50;;;;;;4799233;29;20037;-81
2022/03/02 03:27:11;;;;;;;13.93;11.15;;;9.60;78.50;;;;;;4829240;29;20421;-81
2022/03/02 03:29:37;;;;;;;15.20;12.27;;;9.60;78.50;;;;;;4814415;29;20026;-81
2022/03/02 03:32:04;;;;;;;15.95;12.25;;;9.50;78.50;;;;;;4814313;29;20037;-81
2022/03/02 03:34:30;;;;;;;16.27;12.15;;;9.50;78.50;;;;;;4798994;29;20073;-82
2022/03/02 03:36:56;;;;;;;14.57;11.40;;;9.50;78.50;;;;;;4798771;29;20133;-81
2022/03/02 03:39:22;;;;;;;15.02;11.77;;;9.50;78.50;;;;;;4798810;29;20062;-81
2022/03/02 03:41:48;;;;;;;14.73;11.48;;;9.50;78.50;;;;;;4828695;29;20033;-80
2022/03/02 03:44:13;;;;;;;15.23;12.50;;;9.50;78.50;;;;;;4798937;29;20087;-81
2022/03/02 03:46:39;;;;;;;14.27;11.23;;;9.50;78.50;;;;;;4813808;29;20026;-80
2022/03/02 03:49:05;;;;;;;15.55;12.15;;;9.50;78.50;;;;;;4828895;29;20029;-80
2022/03/02 03:51:31;;;;;;;14.13;11.45;;;9.50;78.50;;;;;;4813550;29;20042;-81
2022/03/02 03:53:56;;;;;;;14.98;11.73;;;9.50;78.50;;;;;;4828696;29;20026;-81
2022/03/02 03:56:22;;;;;;;13.80;10.82;;;9.50;78.60;;;;;;4813975;29;20034;-81
2022/03/02 03:58:48;;;;;;;14.02;11.05;;;9.50;78.50;;;;;;4813477;29;20037;-80
2022/03/02 04:01:14;;;;;;;13.70;11.13;;;9.40;78.50;;;;;;4813642;29;20038;-81
2022/03/02 04:03:40;;;;;;;16.15;12.35;;;9.40;78.50;;;;;;4814243;29;20042;-82
2022/03/02 04:06:06;;;;;;;15.13;12.00;;;9.40;78.50;;;;;;4844844;29;20494;-81
2022/03/02 04:08:32;;;;;;;16.10;12.23;;;9.40;78.50;;;;;;4813918;29;20079;-81
2022/03/02 04:11:00;;;;;;;14.82;11.77;;;9.40;78.50;;;;;;4845147;29;20046;-80
2022/03/02 04:13:25;;;;;;;15.25;11.98;;;9.40;78.50;;;;;;4844666;29;20034;-81
2022/03/02 04:15:51;;;;;;;15.38;11.93;;;9.40;78.50;;;;;;4813164;29;20090;-80
2022/03/02 04:18:18;;;;;;;15.50;11.57;;;9.40;78.50;;;;;;4813162;29;20475;-81
2022/03/02 04:20:43;;;;;;;14.15;10.80;;;9.40;78.60;;;;;;4813378;29;20038;-80
2022/03/02 04:23:09;;;;;;;14.05;11.77;;;9.40;78.50;;;;;;4812955;29;20045;-80
2022/03/02 04:25:36;;;;;;;14.27;11.57;;;9.40;78.50;;;;;;4812827;29;20391;-80
2022/03/02 04:28:02;;;;;;;15.38;11.57;;;9.40;78.60;;;;;;4812944;29;20030;-80
2022/03/02 04:30:30;;;;;;;16.25;12.13;;;9.30;78.50;;;;;;4827664;29;20074;-80
2022/03/02 04:32:59;;;;;;;15.73;12.10;;;9.30;78.50;;;;;;4812770;29;20102;-81
2022/03/02 04:35:25;;;;;;;14.77;11.50;;;9.30;78.60;;;;;;4812729;29;20137;-80
2022/03/02 04:37:51;;;;;;;14.10;11.35;;;9.30;78.60;;;;;;4844448;29;20135;-81
2022/03/02 04:40:17;;;;;;;15.93;12.10;;;9.30;78.60;;;;;;4797999;29;20079;-80
2022/03/02 04:42:43;;;;;;;15.52;10.98;;;9.30;78.60;;;;;;4812585;29;20038;-81
2022/03/02 04:45:10;;;;;;;14.90;11.25;;;9.30;78.60;;;;;;4813182;29;20054;-81
2022/03/02 04:47:36;;;;;;;14.63;11.25;;;9.30;78.60;;;;;;4812415;29;20067;-80
2022/03/02 04:50:03;;;;;;;15.38;12.45;;;9.20;78.50;;;;;;4812367;29;20038;-80
2022/03/02 04:52:29;;;;;;;14.13;11.30;;;9.20;78.60;;;;;;4843677;29;20030;-80
2022/03/02 04:55:07;;;;;;;15.05;11.48;;;9.20;78.60;;;;;;4843964;29;20117;-80
2022/03/02 04:57:39;;;;;;;14.60;11.35;;;9.20;78.50;;;;;;4798941;29;20054;-81
2022/03/02 05:00:10;;;;;;;14.77;11.95;;;9.20;78.60;;;;;;4813286;29;20037;-82
2022/03/02 05:02:37;;;;;;;14.23;11.52;;;9.20;78.60;;;;;;4827818;29;20097;-81
2022/03/02 05:05:04;;;;;;;14.93;11.88;;;9.20;78.60;;;;;;4827606;29;20035;-81
2022/03/02 05:07:30;;;;;;;14.68;11.30;;;9.20;78.60;;;;;;4797232;29;20097;-80
2022/03/02 05:09:56;;;;;;;14.15;11.05;;;9.20;78.60;;;;;;4812153;29;20042;-81
2022/03/02 05:12:21;;;;;;;14.43;11.27;;;9.10;78.60;;;;;;4782479;29;20080;-80
2022/03/02 05:14:49;;;;;;;14.43;11.05;;;9.10;78.60;;;;;;4827467;29;20022;-81
2022/03/02 05:17:15;;;;;;;14.88;11.50;;;9.10;78.60;;;;;;4812789;29;20041;-83
2022/03/02 05:19:41;;;;;;;14.82;11.45;;;9.10;78.60;;;;;;4811918;29;20559;-80
2022/03/02 05:22:07;;;;;;;15.38;12.25;;;9.10;78.60;;;;;;4827157;29;20361;-81
2022/03/02 05:24:32;;;;;;;15.43;11.70;;;9.10;78.60;;;;;;4811898;29;20030;-81
2022/03/02 05:26:58;;;;;;;14.32;10.90;;;9.10;78.60;;;;;;4797043;29;20030;-80
2022/03/02 05:29:24;;;;;;;16.17;12.27;;;9.00;78.50;;;;;;4827597;29;20428;-81
2022/03/02 05:31:50;;;;;;;15.20;11.27;;;9.00;78.50;;;;;;4843290;29;20072;-80
2022/03/02 05:34:16;;;;;;;14.77;11.38;;;9.00;78.60;;;;;;4796735;29;20054;-80
2022/03/02 05:36:42;;;;;;;15.55;11.57;;;9.00;78.60;;;;;;4812371;29;20049;-80
2022/03/02 05:39:08;;;;;;;16.02;12.35;;;9.00;78.60;;;;;;4797214;29;20041;-83
2022/03/02 05:41:33;;;;;;;15.32;11.30;;;9.00;78.50;;;;;;4811512;29;20484;-80
2022/03/02 05:44:00;;;;;;;14.93;12.18;;;9.00;78.50;;;;;;4811857;29;20026;-81
2022/03/02 05:46:27;;;;;;;16.65;12.18;;;8.90;78.50;;;;;;4827023;29;20034;-81
2022/03/02 05:48:53;;;;;;;14.65;11.93;;;8.90;78.50;;;;;;4812087;29;20109;-81
2022/03/02 05:51:20;;;;;;;17.52;11.93;;;8.90;78.50;;;;;;4811586;29;20081;-81
2022/03/02 05:53:46;;;;;;;15.32;12.02;;;8.90;78.50;;;;;;4812140;29;20033;-80
2022/03/02 05:56:12;;;;;;;16.30;12.38;;;8.90;79.10;;;;;;4828525;29;20038;-81
2022/03/02 05:58:38;;;;;;;16.67;11.93;;;8.90;78.50;;;;;;4814091;29;20072;-81
2022/03/02 06:01:04;;;;;;;16.83;11.98;;;8.90;78.50;;;;;;4828696;29;20034;-80
2022/03/02 06:03:31;;;;;;;15.00;11.73;;;8.90;78.50;;;;;;4829265;29;20089;-81
2022/03/02 06:05:57;;;;;;;16.55;12.77;;;8.80;78.50;;;;;;4812871;29;20030;-81
2022/03/02 06:08:23;;;;;;;16.08;11.63;;;8.80;78.60;;;;;;4798383;29;20502;-83
2022/03/02 06:10:50;;;;;;;15.18;12.45;;;8.80;78.50;;;;;;4812670;29;20037;-80
2022/03/02 06:13:16;;;;;;;14.82;12.02;;;8.80;78.50;;;;;;4813363;29;20038;-81
2022/03/02 06:15:42;;;;;;;15.48;11.77;;;8.80;78.50;;;;;;4813202;29;20030;-81
2022/03/02 06:18:09;;;;;;;16.67;11.20;;;8.80;78.50;;;;;;4827701;29;20042;-81
2022/03/02 06:20:35;;;;;;;16.17;12.48;;;8.70;78.50;;;;;;4830503;29;20491;-81
2022/03/02 06:23:02;;;;;;;14.43;11.13;;;8.70;78.50;;;;;;4800911;29;20042;-80
2022/03/02 06:25:28;;;;;;;15.02;11.57;;;8.70;78.50;;;;;;4817021;29;20075;-81
2022/03/02 06:28:00;;;;;;;17.05;13.05;;;8.70;78.50;;;;;;4816936;29;20112;-81
2022/03/02 06:30:26;;;;;;;14.82;11.85;;;8.60;78.40;;;;;;4817046;29;20046;-75
2022/03/02 06:32:52;;;;;;;15.05;12.07;;;8.60;78.40;;;;;;4815161;29;20185;-79
2022/03/02 06:35:18;;;;;;;17.38;13.00;;;8.60;78.50;;;;;;4831353;29;20520;-78
2022/03/02 06:37:46;;;;;;;13.85;11.38;;;8.60;78.50;;;;;;4816159;29;20046;-79
2022/03/02 06:40:13;;;;;;;13.95;11.30;;;8.60;78.50;;;;;;4830948;29;20018;-78
2022/03/02 06:43:00;;;;;;;15.57;11.80;;;8.60;78.40;;;;;;4817676;29;20140;-80
2022/03/02 06:45:54;;;;;;;16.23;12.10;;;8.50;78.40;;;;;;4831751;29;20110;-82
2022/03/02 06:48:29;;;;;;;15.68;11.05;;;8.50;78.40;;;;;;4827438;29;20041;-82
2022/03/02 06:50:58;;;;;;;16.20;12.10;;;8.50;78.40;;;;;;4818032;29;20038;-79
2022/03/02 06:53:33;;;;;;;16.70;12.35;;;8.40;78.40;;;;;;4815191;29;20459;-77
2022/03/02 06:56:05;;;;;;;;;;;8.40;78.50;;;;;;4815848;29;20037;-80
2022/03/02 06:58:42;;;;;;;13.45;10.40;;;8.40;78.40;;;;;;4845965;29;19999;-77
2022/03/02 07:01:13;;;;;;;15.68;11.70;;;8.40;78.40;;;;;;4846824;29;20038;-80
2022/03/02 07:03:49;;;;;;;15.77;12.02;;;8.30;78.50;;;;;;4829646;29;20030;-81
2022/03/02 07:06:15;;;;;;;15.55;11.68;;;8.30;78.60;;;;;;4817886;29;20034;-79
2022/03/02 07:08:48;;;;;;;14.32;11.07;;;8.30;78.50;;;;;;4829208;29;20038;-78
2022/03/02 07:11:16;;;;;;;14.60;11.35;;;8.30;78.50;;;;;;4830436;29;20046;-83
2022/03/02 07:13:44;;;;;;;15.52;11.40;;;8.20;78.40;;;;;;4814289;29;20030;-77
2022/03/02 07:16:14;;;;;;;15.27;11.25;;;8.20;78.40;;;;;;4814415;29;20037;-77
2022/03/02 07:18:41;;;;;;;15.60;11.50;;;8.20;78.40;;;;;;4828629;29;20090;-79
2022/03/02 07:21:11;;;;;;;14.45;10.70;;;8.20;78.50;;;;;;4828597;29;20113;-77
2022/03/02 07:23:42;;;;;;;14.43;11.00;;;8.20;78.50;;;;;;4828782;29;20471;-78
2022/03/02 07:26:09;;;;;;;15.70;10.98;;;8.20;78.50;;;;;;4845487;29;20060;-77
2022/03/02 07:28:40;;;;;;;13.57;10.75;;;8.10;78.40;;;;;;4813695;29;20105;-77
2022/03/02 07:31:08;;;;;;;15.30;11.25;;;8.10;78.40;;;;;;4827636;29;20453;-78
2022/03/02 07:33:41;;;;;;;15.68;11.93;;;8.10;79.00;;;;;;4812988;29;20514;-79
2022/03/02 07:36:09;;;;;;;14.63;11.38;;;8.10;78.40;;;;;;4844781;29;20040;-78
2022/03/02 07:38:35;;;;;;;14.77;11.38;;;8.10;78.40;;;;;;4828872;29;20515;-76
2022/03/02 07:41:09;;;;;;;14.63;11.57;;;8.10;78.40;;;;;;4828261;29;20042;-78
2022/03/02 07:43:40;;;;;;;14.27;10.80;;;8.10;78.40;;;;;;4813432;29;20549;-76
2022/03/02 07:46:09;;;;;;;13.27;10.35;;;8.00;78.40;;;;;;4813364;29;20058;-78
2022/03/02 07:48:36;;;;;;;13.73;10.13;;;8.00;78.30;;;;;;4828562;29;20052;-78
2022/03/02 07:51:04;;;;;;;14.50;11.18;;;8.00;78.30;;;;;;4813071;29;20045;-78
2022/03/02 07:53:51;;;;;;;16.38;11.20;;;8.00;78.40;;;;;;4813740;29;20034;-77
2022/03/02 07:56:18;;;;;;;14.05;10.43;;;8.00;78.50;;;;;;4844843;29;20030;-79
2022/03/02 07:58:44;;;;;;;12.90;10.40;;;8.00;78.30;;;;;;4827929;29;20536;-78
2022/03/02 08:01:14;;;;;;;13.48;10.10;;;8.00;78.40;;;;;;4812580;29;20050;-79
2022/03/02 08:03:43;;;;;;;12.80;10.18;;;8.00;78.40;;;;;;4812799;29;20034;-78
2022/03/02 08:06:09;;;;;;;13.63;10.15;;;8.00;78.40;;;;;;4798047;29;20125;-79
2022/03/02 08:08:36;;;;;;;13.02;9.50;;;8.00;78.40;;;;;;4844261;29;20136;-78
2022/03/02 08:11:03;;;;;;;13.10;10.05;;;7.90;78.30;;;;;;4827606;29;20042;-78
2022/03/02 08:13:33;;;;;;;13.85;10.73;;;7.90;78.30;;;;;;4828253;29;20476;-93
2022/03/02 08:16:00;;;;;;;13.23;9.68;;;8.00;78.40;;;;;;4831805;29;20030;-83
2022/03/02 08:18:27;;;;;;;12.13;9.85;;;8.00;78.30;;;;;;4813247;29;20425;-80
2022/03/02 08:20:55;;;;;;;12.30;9.27;;;7.90;78.30;;;;;;4827694;29;20045;-79
2022/03/02 08:23:23;;;;;;;13.45;10.05;;;7.90;78.30;;;;;;4843806;29;20030;-79
2022/03/02 08:25:53;;;;;;;14.48;10.93;;;7.90;78.30;;;;;;4827831;29;20060;-77
2022/03/02 08:28:21;;;;;;;12.73;10.02;;;8.00;78.40;;;;;;4812610;29;20088;-79
2022/03/02 08:30:50;;;;;;;12.07;9.65;;;7.90;78.30;;;;;;4827252;29;20444;-77
2022/03/02 08:33:25;;;;;;;12.88;9.45;;;7.90;78.30;;;;;;4827508;29;20054;-79
2022/03/02 08:35:52;;;;;;;13.68;9.75;;;7.90;78.40;;;;;;4813267;29;20065;-82
2022/03/02 08:38:18;;;;;;;15.85;10.75;;;7.90;78.30;;;;;;4797969;29;20064;-78
2022/03/02 08:40:44;;;;;;;12.27;9.57;;;7.90;78.30;;;;;;4827319;29;20066;-78
2022/03/02 08:43:13;;;;;;;12.45;10.15;;;7.90;78.30;;;;;;4826587;29;20520;-78
2022/03/02 08:45:38;;;;;;;13.00;9.15;;;7.90;78.30;;;;;;4812058;29;20026;-78
2022/03/02 08:48:05;;;;;;;12.32;9.73;;;7.90;78.30;;;;;;4812331;29;20140;-78
2022/03/02 08:50:31;;;;;;;11.73;9.13;;;7.90;78.30;;;;;;4811729;29;20081;-77
2022/03/02 08:52:57;;;;;;;12.55;9.95;;;7.90;78.20;;;;;;4812245;29;20043;-79
2022/03/02 08:55:28;;;;;;;12.45;9.65;;;7.90;78.20;;;;;;4826810;29;20181;-78
2022/03/02 08:57:55;;;;;;;13.85;10.65;;;7.90;78.30;;;;;;4827405;29;20034;-79
2022/03/02 09:00:21;;;;;;;12.50;9.48;;;7.90;78.30;;;;;;4812237;29;20505;-78
2022/03/02 09:02:47;;;;;;;11.82;9.50;;;7.90;78.20;;;;;;4827143;29;20065;-79
2022/03/02 09:05:13;;;;;;;13.32;10.05;;;7.90;78.30;;;;;;4827886;29;20120;-78
2022/03/02 09:07:40;;;;;;;13.00;9.77;;;7.90;78.20;;;;;;4842845;29;20178;-78
2022/03/02 09:10:06;;;;;;;13.73;10.55;;;7.90;78.30;;;;;;4811822;29;20125;-77
2022/03/02 09:12:32;;;;;;;13.50;10.85;;;7.90;78.30;;;;;;4827253;29;20038;-78
2022/03/02 09:14:58;;;;;;;13.23;10.38;;;8.00;78.30;;;;;;4811714;29;20022;-78
2022/03/02 09:17:25;;;;;;;13.23;10.48;;;8.00;78.30;;;;;;4826715;29;20045;-77
2022/03/02 09:19:56;;;;;;;13.00;10.48;;;8.00;78.30;;;;;;4827080;29;20048;-77
2022/03/02 09:22:24;;;;;;;13.75;10.40;;;8.00;78.20;;;;;;4811432;29;20535;-77
2022/03/02 09:24:50;;;;;;;13.55;10.18;;;8.10;78.30;;;;;;4811332;29;20156;-77
2022/03/02 09:27:18;;;;;;;12.15;9.93;;;8.10;78.20;;;;;;4827205;29;20125;-77
2022/03/02 09:29:46;;;;;;;13.43;10.70;;;8.10;78.20;;;;;;4811791;29;20036;-78
2022/03/02 09:32:13;;;;;;;12.48;9.85;;;8.10;78.20;;;;;;4826403;29;20048;-78
2022/03/02 09:34:45;;;;;;;13.55;10.32;;;8.20;78.20;;;;;;4811185;29;20480;-78
2022/03/02 09:37:13;;;;;;;13.13;9.98;;;8.20;78.20;;;;;;4843472;29;20117;-79
2022/03/02 09:39:38;;;;;;;13.88;10.88;;;8.20;78.10;;;;;;4811127;29;20121;-78
2022/03/02 09:42:26;;;;;;;13.57;9.93;;;8.30;78.20;;;;;;4842788;29;20113;-80
2022/03/02 09:45:06;;;;;;;14.10;10.07;;;8.30;78.20;;;;;;4810809;29;20090;-79
2022/03/02 09:47:53;;;;;;;12.95;9.55;;;8.40;78.20;;;;;;4826502;29;20076;-78
2022/03/02 09:50:22;;;;;;;12.63;9.52;;;8.40;78.10;;;;;;4826194;29;20090;-79
2022/03/02 09:52:50;;;;;;;13.93;10.25;;;8.40;78.00;;;;;;4811258;29;20022;-79
2022/03/02 09:55:21;;;;;;;13.27;10.15;;;8.50;78.00;;;;;;4842044;29;20037;-79
2022/03/02 09:57:49;;;;;;;13.18;10.00;;;8.50;78.00;;;;;;4811430;29;20042;-80
2022/03/02 10:00:18;;;;;;;12.38;10.00;;;8.60;78.00;;;;;;4811962;29;20036;-80
2022/03/02 10:02:50;;;;;;;12.32;9.75;;;8.60;78.00;;;;;;4827546;29;20049;-81
2022/03/02 10:05:20;;;;;;;11.13;9.70;;;8.70;78.00;;;;;;4826582;29;20053;-80
2022/03/02 10:08:08;;;;;;;11.27;9.55;;;8.80;78.00;;;;;;4826565;29;20086;-79
2022/03/02 10:10:36;;;;;;;12.45;9.30;;;8.90;78.10;;;;;;4826533;29;20067;-84
2022/03/02 10:13:08;;;;;;;11.68;9.32;;;8.90;77.90;;;;;;4842907;29;20041;-79
2022/03/02 10:15:35;;;;;;;13.48;9.55;;;9.00;77.90;;;;;;4842886;29;20098;-80
2022/03/02 10:18:10;;;;;;;13.75;10.20;;;9.00;77.90;;;;;;4810531;29;20030;-80
2022/03/02 10:20:38;;;;;;;13.20;9.77;;;9.10;77.90;;;;;;4826348;29;20042;-80
2022/03/02 10:23:34;;;;;;;14.05;10.13;;;9.10;77.80;;;;;;4810874;29;20026;-79
2022/03/02 10:26:04;;;;;;;13.65;9.93;;;9.20;77.90;;;;;;4816811;29;20133;-77
2022/03/02 10:28:30;;;;;;;12.63;10.07;;;9.30;77.80;;;;;;4810666;29;20037;-78
2022/03/02 10:31:13;;;;;;;13.18;9.88;;;9.30;77.80;;;;;;4826457;29;20412;-79
2022/03/02 10:33:46;;;;;;;11.93;9.40;;;9.40;77.90;;;;;;4825557;29;20510;-78
2022/03/02 10:36:12;;;;;;;11.32;9.30;;;9.50;77.80;;;;;;4810966;29;20037;-78
2022/03/02 10:39:07;;;;;;;12.90;9.98;;;9.50;77.80;;;;;;4810714;29;20046;-78
2022/03/02 10:41:39;;;;;;;12.40;9.98;;;9.60;77.90;;;;;;4811191;29;20038;-80
2022/03/02 10:44:34;;;;;;;12.35;9.40;;;9.70;77.80;;;;;;4825583;29;20038;-79
2022/03/02 10:47:05;;;;;;;13.50;10.32;;;9.80;77.90;;;;;;4825876;29;20030;-80
2022/03/02 10:49:34;;;;;;;12.35;9.98;;;9.90;77.80;;;;;;4841586;29;20038;-79
2022/03/02 10:52:01;;;;;;;13.48;9.75;;;9.90;77.80;;;;;;4810763;29;20041;-78
2022/03/02 10:54:30;;;;;;;11.80;9.55;;;10.00;77.90;;;;;;4825720;29;20042;-79
2022/03/02 10:57:00;;;;;;;12.35;9.70;;;10.10;77.90;;;;;;4810427;29;20037;-79
2022/03/02 10:59:25;;;;;;;12.45;10.23;;;10.20;77.90;;;;;;4810549;29;20042;-79
2022/03/02 11:01:53;;;;;;;12.43;10.00;;;10.30;77.80;;;;;;4841760;29;20041;-78
2022/03/02 11:04:20;;;;;;;12.40;9.63;;;10.30;77.80;;;;;;4810367;29;20037;-78
2022/03/02 11:06:46;;;;;;;13.63;10.32;;;10.40;77.80;;;;;;4827073;29;20038;-81
2022/03/02 11:09:16;;;;;;;13.18;10.13;;;10.40;77.70;;;;;;4813752;29;20037;-79
2022/03/02 11:11:42;;;;;;;11.68;9.40;;;10.60;77.80;;;;;;4814389;29;20101;-79
2022/03/02 11:14:09;;;;;;;11.00;9.07;;;10.60;77.70;;;;;;4813660;29;20151;-79
2022/03/02 11:16:35;;;;;;;12.98;10.20;;;10.70;77.70;;;;;;4814374;29;20064;-80
2022/03/02 11:19:13;;;;;;;12.75;10.07;;;10.80;77.70;;;;;;4828572;29;20112;-80
2022/03/02 11:21:41;;;;;;;11.77;9.88;;;10.80;77.80;;;;;;4813714;29;20040;-80
2022/03/02 11:24:09;;;;;;;11.27;9.05;;;10.90;77.60;;;;;;4813315;29;20026;-80
2022/03/02 11:26:37;;;;;;;12.65;9.82;;;10.90;77.60;;;;;;4813567;29;20062;-79
2022/03/02 11:29:21;;;;;;;11.88;9.73;;;11.00;77.60;;;;;;4846710;29;20121;-82
2022/03/02 11:31:54;;;;;;;12.40;10.00;;;11.10;77.70;;;;;;4814494;29;20046;-81
2022/03/02 11:34:28;;;;;;;12.00;9.85;;;11.10;77.60;;;;;;4813668;29;20054;-82
2022/03/02 11:37:00;;;;;;;12.25;9.18;;;11.20;77.60;;;;;;4798468;29;20125;-79
2022/03/02 11:39:27;;;;;;;12.93;9.75;;;11.30;77.60;;;;;;4828474;29;20082;-79
2022/03/02 11:41:56;;;;;;;11.52;9.68;;;11.30;77.60;;;;;;4813469;29;20041;-80
2022/03/02 11:44:33;;;;;;;12.75;10.05;;;11.30;77.60;;;;;;4813931;29;20033;-80
2022/03/02 11:47:05;;;;;;;12.25;9.70;;;11.40;77.80;;;;;;4813653;29;20494;-79
2022/03/02 11:49:41;;;;;;;11.52;9.68;;;11.40;77.80;;;;;;4827993;29;20509;-77
2022/03/02 11:52:10;;;;;;;11.45;9.73;;;11.50;77.90;;;;;;4828268;29;20042;-79
2022/03/02 11:54:55;;;;;;;11.45;9.15;;;11.50;77.80;;;;;;4813148;29;20026;-80
2022/03/02 11:57:22;;;;;;;11.40;9.50;;;11.60;78.10;;;;;;4828555;29;20037;-79
2022/03/02 12:00:04;;;;;;;12.20;9.48;;;11.60;78.00;;;;;;4827968;29;20316;-80
2022/03/02 12:02:48;;;;;;;10.90;9.15;;;11.70;78.10;;;;;;4828998;29;20062;-78
2022/03/02 12:05:17;;;;;;;11.45;9.05;;;11.70;78.30;;;;;;4812659;29;20034;-83
2022/03/02 12:07:45;;;;;;;12.02;9.45;;;11.70;78.30;;;;;;4828527;29;20472;-82
2022/03/02 12:10:23;;;;;;;12.35;9.88;;;11.80;78.40;;;;;;4827833;29;20079;-78
2022/03/02 12:12:50;;;;;;;12.15;9.32;;;11.80;78.60;;;;;;4827702;29;20038;-77
2022/03/02 12:15:17;;;;;;;12.43;10.02;;;11.90;78.50;;;;;;4827670;29;20456;-79
2022/03/02 12:17:43;;;;;;;10.80;8.45;;;11.90;78.60;;;;;;4812539;29;20041;-80
2022/03/02 12:20:09;;;;;;;12.23;9.85;;;11.90;78.50;;;;;;4843839;29;20026;-79
2022/03/02 12:22:41;;;;;;;11.65;9.25;;;12.00;78.60;;;;;;4828043;29;20502;-76
2022/03/02 12:25:10;;;;;;;11.32;9.32;;;12.00;78.70;;;;;;4827592;29;20034;-78
2022/03/02 12:27:37;;;;;;;12.05;9.93;;;12.00;78.70;;;;;;4812627;29;20034;-79
2022/03/02 12:30:12;;;;;;;11.80;9.57;;;12.10;78.70;;;;;;4812314;29;20058;-80
2022/03/02 12:32:39;;;;;;;;;;;12.10;78.70;;;;;;4844281;29;20066;-77
2022/03/02 12:35:08;;;;;;;10.32;8.35;;;12.20;78.60;;;;;;4824091;29;19921;-79
2022/03/02 12:37:34;;;;;;;11.20;9.18;;;12.20;78.50;;;;;;4809853;29;20472;-78
2022/03/02 12:40:06;;;;;;;10.68;8.57;;;12.20;78.60;;;;;;4809312;29;20070;-80
2022/03/02 12:42:32;;;;;;;11.00;9.05;;;12.20;78.70;;;;;;4809868;29;20034;-78